Terminal Aerodrome Forecast
Issued by NWS Pueblo, CO

Home | Current Version | Previous Version | Text Only | Print | Product List | Glossary On
Versions: 1 2 3 4 5 6 7 8 9 10 11 12 13 14 15 16 17 18 19 20 21 22 23 24 25 26 27 28 29 30 31 32 33 34 35 36 37 38 39 40 41 42 43
443
FTUS45 KPUB 290329 AAD
TAFCOS
TAF AMD
KCOS 290329Z 2903/2924 03015G25KT 2SM -SN BR FEW009 BKN022 OVC040
      TEMPO 2903/2905 5SM -RASN BR BKN015
     FM290500 03020G30KT 1SM -SN BR OVC010
     FM291000 01024G34KT 2SM -SN BR SCT010 OVC020
     FM291600 35022G32KT 3SM -SN SCT015 OVC030=

USA.gov is the U.S. government's official web portal to all federal, state and local government web resources and services.